createdAt,value
2019-03-30T00:02:20.761Z,6.33
2019-03-30T00:04:51.899Z,6.37
2019-03-30T00:07:23.025Z,6.37
2019-03-30T00:09:54.081Z,6.24
2019-03-30T00:12:25.082Z,6.30
2019-03-30T00:14:56.221Z,6.20
2019-03-30T00:17:27.308Z,6.16
2019-03-30T00:19:58.333Z,5.97
2019-03-30T00:22:29.374Z,6.12
2019-03-30T00:25:00.439Z,5.97
2019-03-30T00:27:31.648Z,5.95
2019-03-30T00:30:02.773Z,6.03
2019-03-30T00:32:33.729Z,6.01
2019-03-30T00:35:05.155Z,5.94
2019-03-30T00:37:36.120Z,5.83
2019-03-30T00:40:07.658Z,5.75
2019-03-30T00:42:38.821Z,5.53
2019-03-30T00:45:10.037Z,5.47
2019-03-30T00:47:41.081Z,5.39
2019-03-30T00:50:12.469Z,5.38
2019-03-30T00:52:43.665Z,5.63
2019-03-30T00:55:15.475Z,5.69
2019-03-30T00:57:46.513Z,5.73
2019-03-30T01:00:18.036Z,5.61
2019-03-30T01:02:49.460Z,5.64
2019-03-30T01:05:20.581Z,5.53
2019-03-30T01:07:51.773Z,5.50
2019-03-30T01:10:23.108Z,5.40
2019-03-30T01:12:54.569Z,5.38
2019-03-30T01:15:25.679Z,5.38
2019-03-30T01:17:56.785Z,5.24
2019-03-30T01:20:28.094Z,5.06
2019-03-30T01:22:59.229Z,5.22
2019-03-30T01:25:30.444Z,5.21
2019-03-30T01:28:01.551Z,5.21
2019-03-30T01:30:32.819Z,5.19
2019-03-30T01:33:03.858Z,5.14
2019-03-30T01:35:35.004Z,5.18
2019-03-30T01:38:06.189Z,4.97
2019-03-30T01:40:37.437Z,4.97
2019-03-30T01:43:08.644Z,5.06
2019-03-30T01:45:39.866Z,4.89
2019-03-30T01:48:11.067Z,4.99
2019-03-30T01:50:42.329Z,4.97
2019-03-30T01:53:13.523Z,4.85
2019-03-30T01:55:44.594Z,4.97
2019-03-30T01:58:15.787Z,5.02
2019-03-30T02:00:46.883Z,5.01
2019-03-30T02:03:18.132Z,4.82
2019-03-30T02:05:49.305Z,4.92
2019-03-30T02:08:20.441Z,4.86
2019-03-30T02:10:51.826Z,4.82
2019-03-30T02:13:23.033Z,4.76
2019-03-30T02:15:54.229Z,4.90
2019-03-30T02:18:25.446Z,5.17
2019-03-30T02:20:56.450Z,5.16
2019-03-30T02:23:27.501Z,4.82
2019-03-30T02:25:58.741Z,4.88
2019-03-30T02:28:29.922Z,4.84
2019-03-30T02:31:01.166Z,4.87
2019-03-30T02:33:32.436Z,4.99
2019-03-30T02:36:03.772Z,5.00
2019-03-30T02:38:35.037Z,5.22
2019-03-30T02:41:06.281Z,5.28
2019-03-30T02:43:37.781Z,5.11
2019-03-30T02:46:08.875Z,5.14
2019-03-30T02:48:40.016Z,5.19
2019-03-30T02:51:11.165Z,5.23
2019-03-30T02:53:42.378Z,5.39
2019-03-30T02:56:13.520Z,5.31
2019-03-30T02:58:44.664Z,5.35
2019-03-30T03:01:15.816Z,5.41
2019-03-30T03:03:47.071Z,5.52
2019-03-30T03:06:18.244Z,5.48
2019-03-30T03:08:49.339Z,5.31
2019-03-30T03:11:20.493Z,5.26
2019-03-30T03:13:51.628Z,5.18
2019-03-30T03:16:27.039Z,5.05
2019-03-30T03:18:55.822Z,4.82
2019-03-30T03:21:27.016Z,4.87
2019-03-30T03:23:58.341Z,4.91
2019-03-30T03:26:29.458Z,4.84
2019-03-30T03:29:00.486Z,4.87
2019-03-30T03:31:31.632Z,4.76
2019-03-30T03:34:02.769Z,4.90
2019-03-30T03:36:33.996Z,4.88
2019-03-30T03:39:06.407Z,4.71
2019-03-30T03:41:37.634Z,4.88
2019-03-30T03:44:08.826Z,4.82
2019-03-30T03:46:40.128Z,4.80
2019-03-30T03:49:12.605Z,4.75
2019-03-30T03:51:44.128Z,4.76
2019-03-30T03:54:15.771Z,4.96
2019-03-30T03:56:51.233Z,4.96
2019-03-30T03:59:25.992Z,4.84
2019-03-30T04:01:59.279Z,4.99
2019-03-30T04:04:36.059Z,5.11
2019-03-30T04:07:08.861Z,5.04
2019-03-30T04:09:44.708Z,5.01
2019-03-30T04:12:20.702Z,4.88
2019-03-30T04:14:54.623Z,4.74
2019-03-30T04:17:26.799Z,4.55
2019-03-30T04:19:57.863Z,4.58
2019-03-30T04:22:37.356Z,4.51
2019-03-30T04:25:08.728Z,4.55
2019-03-30T04:27:39.803Z,4.51
2019-03-30T04:30:11.316Z,4.55
2019-03-30T04:32:42.368Z,4.55
2019-03-30T04:35:20.775Z,4.49
2019-03-30T04:37:51.879Z,4.57
2019-03-30T04:40:27.098Z,4.66
2019-03-30T04:42:59.206Z,4.59
2019-03-30T04:45:30.466Z,4.54
2019-03-30T04:48:01.720Z,4.50
2019-03-30T04:50:32.846Z,4.38
2019-03-30T04:53:11.947Z,4.27
2019-03-30T04:55:43.335Z,4.14
2019-03-30T04:58:15.527Z,4.09
2019-03-30T05:00:47.878Z,3.90
2019-03-30T05:03:19.198Z,3.83
2019-03-30T05:05:50.380Z,3.75
2019-03-30T05:08:21.402Z,3.80
2019-03-30T05:10:52.672Z,3.77
2019-03-30T05:13:23.749Z,3.79
2019-03-30T05:15:54.891Z,3.72
2019-03-30T05:18:26.184Z,3.62
2019-03-30T05:20:57.354Z,3.76
2019-03-30T05:23:28.564Z,3.69
2019-03-30T05:25:59.822Z,3.73
2019-03-30T05:28:30.977Z,3.95
2019-03-30T05:31:02.156Z,4.04
2019-03-30T05:33:33.374Z,4.13
2019-03-30T05:36:04.638Z,4.27
2019-03-30T05:38:35.599Z,4.36
2019-03-30T05:41:08.787Z,4.43
2019-03-30T05:43:39.972Z,4.50
2019-03-30T05:46:11.091Z,4.59
2019-03-30T05:48:42.464Z,4.62
2019-03-30T05:51:13.644Z,4.73
2019-03-30T05:53:44.627Z,4.70
2019-03-30T05:56:15.830Z,4.81
2019-03-30T05:58:47.060Z,4.90
2019-03-30T06:01:19.252Z,5.01
2019-03-30T06:03:51.504Z,5.11
2019-03-30T06:06:22.661Z,5.13
2019-03-30T06:08:53.686Z,5.22
2019-03-30T06:11:24.831Z,5.27
2019-03-30T06:13:55.880Z,5.38
2019-03-30T06:16:27.020Z,5.49
2019-03-30T06:18:58.257Z,5.58
2019-03-30T06:21:29.354Z,5.70
2019-03-30T06:24:00.650Z,5.78
2019-03-30T06:26:31.878Z,6.17
2019-03-30T06:29:03.024Z,6.17
2019-03-30T06:31:34.309Z,6.32
2019-03-30T06:34:06.181Z,7.09
2019-03-30T06:36:37.286Z,6.68
2019-03-30T06:39:09.074Z,6.54
2019-03-30T06:41:40.360Z,6.70
2019-03-30T06:44:11.581Z,6.84
2019-03-30T06:46:42.839Z,7.04
2019-03-30T06:49:14.142Z,7.11
2019-03-30T06:51:45.558Z,7.31
2019-03-30T06:54:16.726Z,7.53
2019-03-30T06:56:47.774Z,7.57
2019-03-30T06:59:19.144Z,7.49
2019-03-30T07:01:50.465Z,7.83
2019-03-30T07:04:21.685Z,7.97
2019-03-30T07:06:53.970Z,8.11
2019-03-30T07:09:28.476Z,8.11
2019-03-30T07:12:02.863Z,8.39
2019-03-30T07:14:37.890Z,8.35
2019-03-30T07:17:12.910Z,8.52
2019-03-30T07:19:48.215Z,8.49
2019-03-30T07:22:19.475Z,9.00
2019-03-30T07:24:50.518Z,9.47
2019-03-30T07:27:21.557Z,9.02
2019-03-30T07:29:52.830Z,9.15
2019-03-30T07:32:23.882Z,9.47
2019-03-30T07:34:55.193Z,9.36
2019-03-30T07:37:26.335Z,9.61
2019-03-30T07:39:57.418Z,9.61
2019-03-30T07:42:28.577Z,9.66
2019-03-30T07:44:59.748Z,10.05
2019-03-30T07:47:30.971Z,9.88
2019-03-30T07:50:02.218Z,9.88
2019-03-30T07:52:33.321Z,10.23
2019-03-30T07:55:04.490Z,9.98
2019-03-30T07:57:35.780Z,10.37
2019-03-30T08:00:08.764Z,10.42
2019-03-30T08:02:40.211Z,10.58
2019-03-30T08:05:11.893Z,10.77
2019-03-30T08:07:43.193Z,11.02
2019-03-30T08:10:14.763Z,11.50
2019-03-30T08:12:45.886Z,11.53
2019-03-30T08:15:17.396Z,11.75
2019-03-30T08:17:48.535Z,11.74
2019-03-30T08:20:19.735Z,11.80
2019-03-30T08:22:50.979Z,11.95
2019-03-30T08:25:22.253Z,11.98
2019-03-30T08:27:53.397Z,12.02
2019-03-30T08:30:24.770Z,12.30
2019-03-30T08:32:55.914Z,12.20
2019-03-30T08:35:27.202Z,12.48
2019-03-30T08:37:58.520Z,12.54
2019-03-30T08:40:29.594Z,12.40
2019-03-30T08:43:00.829Z,12.62
2019-03-30T08:45:33.034Z,12.84
2019-03-30T08:48:04.237Z,12.97
2019-03-30T08:50:35.489Z,13.32
2019-03-30T08:53:06.812Z,13.24
2019-03-30T08:55:38.015Z,13.61
2019-03-30T08:58:09.068Z,13.75
2019-03-30T09:00:42.408Z,13.88
2019-03-30T09:03:13.739Z,13.68
2019-03-30T09:05:44.996Z,13.96
2019-03-30T09:08:16.245Z,14.17
2019-03-30T09:10:47.592Z,14.34
2019-03-30T09:13:18.622Z,14.21
2019-03-30T09:15:49.895Z,14.41
2019-03-30T09:18:20.997Z,14.81
2019-03-30T09:20:52.166Z,14.91
2019-03-30T09:23:23.234Z,15.19
2019-03-30T09:25:54.586Z,14.82
2019-03-30T09:28:25.922Z,14.95
2019-03-30T09:30:57.097Z,15.15
2019-03-30T09:33:28.322Z,15.13
2019-03-30T09:35:59.657Z,15.25
2019-03-30T09:38:30.718Z,15.57
2019-03-30T09:41:01.932Z,15.69
2019-03-30T09:43:33.227Z,15.84
2019-03-30T09:46:04.383Z,15.94
2019-03-30T09:48:35.599Z,16.09
2019-03-30T09:51:06.817Z,16.02
2019-03-30T09:53:38.018Z,16.17
2019-03-30T10:01:44.059Z,16.15
2019-03-30T10:04:22.266Z,16.54
2019-03-30T10:07:01.396Z,16.35
2019-03-30T10:10:00.107Z,16.57
2019-03-30T10:12:47.371Z,16.41
2019-03-30T10:15:26.254Z,16.42
2019-03-30T10:18:19.652Z,16.95
2019-03-30T10:21:21.453Z,17.06
2019-03-30T10:24:18.694Z,17.17
2019-03-30T10:27:13.823Z,17.14
2019-03-30T10:30:13.968Z,16.81
2019-03-30T10:32:52.829Z,16.91
2019-03-30T10:35:40.146Z,16.84
2019-03-30T10:38:19.359Z,17.23
2019-03-30T10:40:56.510Z,17.88
2019-03-30T10:43:40.056Z,17.66
2019-03-30T10:46:17.218Z,17.72
2019-03-30T10:48:53.609Z,17.37
2019-03-30T10:51:38.292Z,17.29
2019-03-30T10:54:22.439Z,17.37
2019-03-30T10:57:05.635Z,17.40
2019-03-30T10:59:49.734Z,17.69
2019-03-30T11:02:41.898Z,17.76
2019-03-30T11:05:39.837Z,18.07
2019-03-30T11:08:16.619Z,18.15
2019-03-30T11:10:55.792Z,18.11
2019-03-30T11:13:53.932Z,17.90
2019-03-30T11:16:59.891Z,17.77
2019-03-30T11:19:45.643Z,18.08
2019-03-30T11:22:42.434Z,18.54
2019-03-30T11:25:34.550Z,18.32
2019-03-30T11:28:49.246Z,18.32
2019-03-30T11:31:35.218Z,18.50
2019-03-30T11:34:15.394Z,18.53
2019-03-30T11:36:50.927Z,18.69
2019-03-30T11:39:34.103Z,18.87
2019-03-30T11:42:22.923Z,18.18
2019-03-30T11:45:09.817Z,18.79
2019-03-30T11:48:10.621Z,18.58
2019-03-30T11:51:12.098Z,18.56
2019-03-30T11:53:56.380Z,18.65
2019-03-30T11:56:54.797Z,18.61
2019-03-30T11:59:42.337Z,18.96
2019-03-30T12:02:38.611Z,19.11
2019-03-30T12:05:40.445Z,18.94
2019-03-30T12:16:48.856Z,18.83
2019-03-30T12:19:22.176Z,18.84
2019-03-30T12:22:01.994Z,19.00
2019-03-30T12:27:52.828Z,19.43
2019-03-30T12:30:24.044Z,19.20
2019-03-30T12:32:56.031Z,18.94
2019-03-30T12:35:27.370Z,19.20
2019-03-30T12:37:58.564Z,18.96
2019-03-30T12:40:29.889Z,19.34
2019-03-30T12:43:01.113Z,18.63
2019-03-30T12:45:32.327Z,19.29
2019-03-30T12:48:03.605Z,19.54
2019-03-30T12:50:34.850Z,19.64
2019-03-30T12:53:06.945Z,19.37
2019-03-30T12:55:48.732Z,19.62
2019-03-30T12:58:11.165Z,19.58
2019-03-30T13:00:42.291Z,18.98
2019-03-30T13:03:13.476Z,19.36
2019-03-30T13:05:45.457Z,19.33
2019-03-30T13:08:16.540Z,19.79
2019-03-30T13:10:47.667Z,19.66
2019-03-30T13:13:18.743Z,19.41
2019-03-30T13:15:49.847Z,19.38
2019-03-30T13:18:20.961Z,19.39
2019-03-30T13:20:52.081Z,19.91
2019-03-30T13:23:23.265Z,19.70
2019-03-30T13:26:03.434Z,19.68
2019-03-30T13:28:27.368Z,19.95
2019-03-30T13:30:58.509Z,19.99
2019-03-30T13:33:29.572Z,19.61
2019-03-30T13:36:00.607Z,19.75
2019-03-30T13:38:31.680Z,19.08
2019-03-30T13:41:02.796Z,18.98
2019-03-30T13:43:33.972Z,19.53
2019-03-30T13:46:05.257Z,19.84
2019-03-30T13:48:36.374Z,19.50
2019-03-30T13:51:07.563Z,19.67
2019-03-30T13:53:38.832Z,19.46
2019-03-30T13:56:17.139Z,19.68
2019-03-30T13:58:43.349Z,19.41
2019-03-30T14:01:14.621Z,19.33
2019-03-30T14:03:46.223Z,19.74
2019-03-30T14:06:18.007Z,19.91
2019-03-30T14:08:49.156Z,19.93
2019-03-30T14:11:20.198Z,19.84
2019-03-30T14:13:51.434Z,19.78
2019-03-30T14:16:22.592Z,19.72
2019-03-30T14:18:53.940Z,19.66
2019-03-30T14:21:25.373Z,19.76
2019-03-30T14:23:56.664Z,19.74
2019-03-30T14:26:31.598Z,19.43
2019-03-30T14:29:00.866Z,19.57
2019-03-30T14:31:32.015Z,19.55
2019-03-30T14:34:03.259Z,19.64
2019-03-30T14:36:34.451Z,20.05
2019-03-30T14:39:07.465Z,19.70
2019-03-30T14:41:38.677Z,19.92
2019-03-30T14:44:09.879Z,19.75
2019-03-30T14:46:41.034Z,19.38
2019-03-30T14:49:12.021Z,19.65
2019-03-30T14:51:43.186Z,19.51
2019-03-30T14:54:14.380Z,19.84
2019-03-30T14:56:48.102Z,19.70
2019-03-30T14:59:19.348Z,19.81
2019-03-30T15:01:51.104Z,19.59
2019-03-30T15:04:22.336Z,19.25
2019-03-30T15:06:53.460Z,19.62
2019-03-30T15:09:24.679Z,19.65
2019-03-30T15:11:55.737Z,19.36
2019-03-30T15:14:26.953Z,19.11
2019-03-30T15:16:58.089Z,19.64
2019-03-30T15:19:29.340Z,19.75
2019-03-30T15:22:00.561Z,19.76
2019-03-30T15:24:31.899Z,19.61
2019-03-30T15:27:03.168Z,19.82
2019-03-30T15:29:34.435Z,19.59
2019-03-30T15:32:05.771Z,19.68
2019-03-30T15:34:37.039Z,19.55
2019-03-30T15:37:08.176Z,19.43
2019-03-30T15:39:39.242Z,19.31
2019-03-30T15:42:10.339Z,19.40
2019-03-30T15:44:41.475Z,19.28
2019-03-30T15:47:12.682Z,19.20
2019-03-30T15:49:43.750Z,19.39
2019-03-30T15:52:14.985Z,19.41
2019-03-30T15:54:46.203Z,19.15
2019-03-30T15:57:17.549Z,19.26
2019-03-30T15:59:48.624Z,19.30
2019-03-30T16:02:20.015Z,19.21
2019-03-30T16:04:51.078Z,19.23
2019-03-30T16:07:22.203Z,19.24
2019-03-30T16:09:55.803Z,19.14
2019-03-30T16:12:27.103Z,19.11
2019-03-30T16:14:58.285Z,19.04
2019-03-30T16:17:29.500Z,19.07
2019-03-30T16:20:00.693Z,18.92
2019-03-30T16:22:32.041Z,18.98
2019-03-30T16:25:03.423Z,18.99
2019-03-30T16:27:34.595Z,18.98
2019-03-30T16:30:06.788Z,18.82
2019-03-30T16:32:37.937Z,18.76
2019-03-30T16:35:09.707Z,18.61
2019-03-30T16:37:40.911Z,18.62
2019-03-30T16:40:12.146Z,18.62
2019-03-30T16:42:43.313Z,18.59
2019-03-30T16:45:14.658Z,18.42
2019-03-30T16:47:45.976Z,18.36
2019-03-30T16:50:18.284Z,18.33
2019-03-30T16:52:49.573Z,18.31
2019-03-30T16:55:21.857Z,18.20
2019-03-30T16:57:53.102Z,18.09
2019-03-30T17:00:24.177Z,17.99
2019-03-30T17:02:55.232Z,18.01
2019-03-30T17:05:26.528Z,17.84
2019-03-30T17:07:58.003Z,17.69
2019-03-30T17:10:29.253Z,17.50
2019-03-30T17:13:00.925Z,17.56
2019-03-30T17:15:32.208Z,17.59
2019-03-30T17:18:03.776Z,17.42
2019-03-30T17:20:34.933Z,17.27
2019-03-30T17:23:06.283Z,17.18
2019-03-30T17:25:37.482Z,17.26
2019-03-30T17:28:08.706Z,17.85
2019-03-30T17:30:39.979Z,17.93
2019-03-30T17:33:11.192Z,17.55
2019-03-30T17:35:42.484Z,17.06
2019-03-30T17:38:14.816Z,16.81
2019-03-30T17:40:46.111Z,16.68
2019-03-30T17:43:17.159Z,16.50
2019-03-30T17:45:48.364Z,16.36
2019-03-30T17:48:19.568Z,16.20
2019-03-30T17:50:50.878Z,15.95
2019-03-30T17:53:21.979Z,15.78
2019-03-30T17:55:53.098Z,15.83
2019-03-30T17:58:24.293Z,15.67
2019-03-30T18:00:55.653Z,15.36
2019-03-30T18:03:26.940Z,15.28
2019-03-30T18:05:58.357Z,15.16
2019-03-30T18:08:29.539Z,15.22
2019-03-30T18:11:03.848Z,15.03
2019-03-30T18:13:36.706Z,14.77
2019-03-30T18:16:07.019Z,14.54
2019-03-30T18:18:38.319Z,14.35
2019-03-30T18:21:09.727Z,14.20
2019-03-30T18:23:41.031Z,13.94
2019-03-30T18:26:12.207Z,13.64
2019-03-30T18:28:43.390Z,13.41
2019-03-30T18:31:14.797Z,13.48
2019-03-30T18:33:46.268Z,13.23
2019-03-30T18:36:19.930Z,13.15
2019-03-30T18:38:52.254Z,13.25
2019-03-30T18:41:23.588Z,12.98
2019-03-30T18:43:55.352Z,12.92
2019-03-30T18:46:26.501Z,12.80
2019-03-30T18:48:57.738Z,12.71
2019-03-30T18:51:29.653Z,12.71
2019-03-30T18:54:01.586Z,12.61
2019-03-30T18:56:32.721Z,12.38
2019-03-30T18:59:03.952Z,12.46
2019-03-30T19:01:34.973Z,12.64
2019-03-30T19:04:06.209Z,12.42
2019-03-30T19:06:37.484Z,12.16
2019-03-30T19:09:11.318Z,11.95
2019-03-30T19:11:42.445Z,11.73
2019-03-30T19:14:13.671Z,11.68
2019-03-30T19:16:44.760Z,11.59
2019-03-30T19:19:17.156Z,11.52
2019-03-30T19:21:48.403Z,11.49
2019-03-30T19:24:19.440Z,11.42
2019-03-30T19:26:50.704Z,11.41
2019-03-30T19:29:21.813Z,11.28
2019-03-30T19:31:52.948Z,11.19
2019-03-30T19:34:24.196Z,11.12
2019-03-30T19:36:55.283Z,11.08
2019-03-30T19:39:26.351Z,11.03
2019-03-30T19:41:57.383Z,11.04
2019-03-30T19:44:28.556Z,11.12
2019-03-30T19:46:59.818Z,11.02
2019-03-30T19:49:31.130Z,11.00
2019-03-30T19:52:05.520Z,10.90
2019-03-30T19:54:35.277Z,10.73
2019-03-30T19:57:06.491Z,10.90
2019-03-30T19:59:37.762Z,10.92
2019-03-30T20:02:09.775Z,11.05
2019-03-30T20:04:41.046Z,11.11
2019-03-30T20:07:12.053Z,10.91
2019-03-30T20:09:43.129Z,10.79
2019-03-30T20:12:14.390Z,10.77
2019-03-30T20:14:45.496Z,10.62
2019-03-30T20:17:16.659Z,10.46
2019-03-30T20:19:47.859Z,10.36
2019-03-30T20:22:19.024Z,10.20
2019-03-30T20:24:50.240Z,10.09
2019-03-30T20:27:21.593Z,10.03
2019-03-30T20:29:52.516Z,9.92
2019-03-30T20:32:23.534Z,9.95
2019-03-30T20:34:54.574Z,9.90
2019-03-30T20:37:25.595Z,9.75
2019-03-30T20:39:56.925Z,9.73
2019-03-30T20:42:27.975Z,9.83
2019-03-30T20:44:59.079Z,9.72
2019-03-30T20:47:30.084Z,9.58
2019-03-30T20:50:01.334Z,9.54
2019-03-30T20:52:32.328Z,9.42
2019-03-30T20:55:03.482Z,9.34
2019-03-30T20:57:34.519Z,9.30
2019-03-30T22:07:54.151Z,8.43
2019-03-30T22:10:30.246Z,8.29
2019-03-30T22:13:01.470Z,8.15
2019-03-30T22:15:32.876Z,8.07
2019-03-30T22:18:04.140Z,8.07
2019-03-30T22:20:35.387Z,8.25
2019-03-30T22:23:06.601Z,8.14
2019-03-30T22:25:37.868Z,8.07
2019-03-30T22:28:09.092Z,8.02
2019-03-30T22:30:40.274Z,8.02
2019-03-30T22:33:11.545Z,8.00
2019-03-30T22:35:42.721Z,8.00
2019-03-30T22:38:13.946Z,7.93
2019-03-30T22:40:45.088Z,7.82
2019-03-30T22:43:16.433Z,7.69
2019-03-30T22:45:47.559Z,7.58
2019-03-30T22:48:19.798Z,7.70
2019-03-30T22:50:52.613Z,7.66
2019-03-30T22:53:23.786Z,7.66
2019-03-30T22:55:54.977Z,7.69
2019-03-30T22:58:26.137Z,7.57
2019-03-30T23:01:19.198Z,7.58
2019-03-30T23:03:50.415Z,7.57
2019-03-30T23:06:21.629Z,7.47
2019-03-30T23:08:52.633Z,7.33
2019-03-30T23:11:23.819Z,7.43
2019-03-30T23:13:55.033Z,7.25
2019-03-30T23:16:26.269Z,7.16
2019-03-30T23:18:57.470Z,7.18
2019-03-30T23:21:28.830Z,7.24
2019-03-30T23:23:59.963Z,7.12
2019-03-30T23:26:31.185Z,7.12
2019-03-30T23:29:02.229Z,6.99
2019-03-30T23:31:33.403Z,6.99
2019-03-30T23:34:04.792Z,7.08
2019-03-30T23:36:35.923Z,6.94
2019-03-30T23:39:08.798Z,6.94
2019-03-30T23:41:40.137Z,7.01
2019-03-30T23:44:11.242Z,6.88
2019-03-30T23:46:42.335Z,6.83
2019-03-30T23:49:13.565Z,6.91
2019-03-30T23:51:44.896Z,6.90
2019-03-30T23:54:18.175Z,6.87
2019-03-30T23:56:49.365Z,6.85
2019-03-30T23:59:20.648Z,6.79
